createdAt,value
2022-10-23T00:01:42.532Z,13.07
2022-10-23T00:04:19.250Z,14.60
2022-10-23T00:06:47.894Z,12.55
2022-10-23T00:09:19.673Z,12.27
2022-10-23T00:11:49.989Z,12.27
2022-10-23T00:14:23.669Z,18.73
2022-10-23T00:16:51.678Z,11.80
2022-10-23T00:19:18.566Z,8.68
2022-10-23T00:21:45.601Z,16.08
2022-10-23T00:24:12.761Z,13.75
2022-10-23T00:26:40.717Z,9.20
2022-10-23T00:29:08.650Z,15.98
2022-10-23T00:31:36.325Z,18.17
2022-10-23T00:34:04.223Z,20.80
2022-10-23T00:36:31.352Z,13.52
2022-10-23T00:38:58.168Z,27.00
2022-10-23T00:41:32.181Z,10.57
2022-10-23T00:44:19.168Z,14.02
2022-10-23T00:46:46.423Z,15.52
2022-10-23T00:49:14.774Z,36.05
2022-10-23T00:51:48.968Z,16.33
2022-10-23T00:54:24.482Z,17.33
2022-10-23T00:56:58.908Z,17.33
2022-10-23T00:59:26.964Z,13.52
2022-10-23T01:01:54.874Z,23.35
2022-10-23T01:04:23.029Z,21.20
2022-10-23T01:07:02.065Z,14.02
2022-10-23T01:09:55.815Z,16.52
2022-10-23T01:12:53.452Z,11.48
2022-10-23T01:15:41.804Z,12.43
2022-10-23T01:18:39.687Z,10.73
2022-10-23T01:21:32.430Z,10.52
2022-10-23T01:24:23.721Z,18.88
2022-10-23T01:27:12.065Z,17.25
2022-10-23T01:30:10.652Z,25.45
2022-10-23T01:33:15.042Z,19.35
2022-10-23T01:35:52.224Z,12.73
2022-10-23T01:38:39.804Z,10.38
2022-10-23T01:41:24.454Z,10.27
2022-10-23T01:44:08.988Z,9.03
2022-10-23T01:46:37.468Z,8.95
2022-10-23T01:49:10.080Z,8.02
2022-10-23T01:51:39.886Z,7.60
2022-10-23T01:54:12.434Z,9.95
2022-10-23T01:56:44.095Z,7.10
2022-10-23T01:59:19.657Z,11.63
2022-10-23T02:01:51.328Z,7.50
2022-10-23T02:04:33.718Z,9.18
2022-10-23T02:07:01.045Z,10.70
2022-10-23T02:09:28.138Z,7.65
2022-10-23T02:12:09.166Z,9.27
2022-10-23T02:15:03.649Z,10.85
2022-10-23T02:18:09.758Z,8.15
2022-10-23T02:20:53.459Z,9.85
2022-10-23T02:23:35.738Z,16.60
2022-10-23T02:26:32.811Z,8.13
2022-10-23T02:29:31.023Z,6.78
2022-10-23T02:31:57.901Z,9.55
2022-10-23T02:34:24.986Z,10.05
2022-10-23T02:36:52.199Z,9.65
2022-10-23T02:39:23.503Z,7.80
2022-10-23T02:42:04.750Z,6.97
2022-10-23T02:44:58.041Z,7.90
2022-10-23T02:48:23.744Z,9.82
2022-10-23T02:51:04.928Z,7.72
2022-10-23T02:54:06.739Z,8.68
2022-10-23T02:56:53.426Z,7.55
2022-10-23T02:59:45.057Z,8.70
2022-10-23T03:02:26.050Z,11.10
2022-10-23T03:04:56.568Z,11.00
2022-10-23T03:07:26.718Z,8.25
2022-10-23T03:09:53.467Z,7.78
2022-10-23T03:12:20.515Z,10.13
2022-10-23T03:14:47.267Z,8.80
2022-10-23T03:17:14.233Z,9.65
2022-10-23T03:19:41.107Z,10.18
2022-10-23T03:22:08.115Z,9.65
2022-10-23T03:24:34.895Z,8.93
2022-10-23T03:27:01.843Z,9.10
2022-10-23T03:29:28.586Z,19.45
2022-10-23T03:31:55.836Z,8.88
2022-10-23T03:34:22.647Z,11.93
2022-10-23T03:36:49.826Z,9.48
2022-10-23T03:39:17.440Z,9.20
2022-10-23T03:41:44.457Z,7.88
2022-10-23T03:44:11.304Z,10.65
2022-10-23T03:46:38.317Z,7.65
2022-10-23T03:49:05.818Z,9.82
2022-10-23T03:51:32.793Z,9.43
2022-10-23T03:53:59.659Z,7.90
2022-10-23T03:56:26.881Z,8.07
2022-10-23T03:58:53.648Z,8.30
2022-10-23T04:01:20.694Z,7.25
2022-10-23T04:03:47.591Z,12.02
2022-10-23T04:06:14.552Z,8.07
2022-10-23T04:08:44.305Z,8.38
2022-10-23T04:11:11.675Z,9.18
2022-10-23T04:13:38.525Z,8.23
2022-10-23T04:16:05.827Z,9.90
2022-10-23T04:18:32.669Z,10.20
2022-10-23T04:20:59.701Z,8.38
2022-10-23T04:23:26.554Z,9.45
2022-10-23T04:25:57.998Z,7.47
2022-10-23T04:28:25.463Z,7.15
2022-10-23T04:30:52.974Z,6.40
2022-10-23T04:33:21.465Z,8.20
2022-10-23T04:35:48.581Z,8.77
2022-10-23T04:38:15.357Z,8.30
2022-10-23T04:40:42.483Z,6.82
2022-10-23T04:43:09.338Z,6.78
2022-10-23T04:45:36.486Z,6.32
2022-10-23T04:48:03.719Z,8.38
2022-10-23T04:50:30.869Z,7.88
2022-10-23T04:52:58.414Z,8.05
2022-10-23T04:55:25.492Z,8.10
2022-10-23T04:58:11.518Z,7.55
2022-10-23T05:00:40.370Z,7.65
2022-10-23T05:03:07.391Z,8.30
2022-10-23T05:05:34.466Z,8.00
2022-10-23T05:08:01.579Z,10.30
2022-10-23T05:10:29.239Z,7.65
2022-10-23T05:12:56.360Z,7.10
2022-10-23T05:15:23.350Z,8.13
2022-10-23T05:17:58.226Z,7.45
2022-10-23T05:23:02.406Z,6.78
2022-10-23T05:25:31.011Z,10.35
2022-10-23T05:27:58.003Z,7.45
2022-10-23T05:30:25.092Z,13.65
2022-10-23T05:32:52.038Z,8.85
2022-10-23T05:35:23.684Z,7.90
2022-10-23T05:37:54.587Z,9.93
2022-10-23T05:40:21.673Z,11.80
2022-10-23T05:42:48.892Z,7.78
2022-10-23T05:45:16.691Z,13.15
2022-10-23T05:47:46.544Z,8.77
2022-10-23T05:50:13.657Z,13.00
2022-10-23T05:52:40.816Z,11.02
2022-10-23T05:55:08.556Z,11.50
2022-10-23T05:57:35.631Z,8.20
2022-10-23T06:00:02.779Z,10.93
2022-10-23T06:02:29.897Z,9.50
2022-10-23T06:04:56.893Z,10.18
2022-10-23T06:07:31.312Z,12.13
2022-10-23T06:10:00.763Z,9.55
2022-10-23T06:12:27.595Z,7.50
2022-10-23T06:14:54.584Z,6.55
2022-10-23T06:17:21.475Z,9.00
2022-10-23T06:19:48.468Z,8.45
2022-10-23T06:22:15.418Z,9.15
2022-10-23T06:24:42.450Z,7.57
2022-10-23T06:27:09.280Z,10.45
2022-10-23T06:29:36.440Z,7.82
2022-10-23T06:32:03.306Z,6.20
2022-10-23T06:34:30.296Z,7.82
2022-10-23T06:36:57.087Z,7.47
2022-10-23T06:39:26.109Z,6.05
2022-10-23T06:41:55.383Z,7.00
2022-10-23T06:44:22.532Z,12.57
2022-10-23T06:46:49.550Z,8.23
2022-10-23T06:49:18.731Z,7.05
2022-10-23T06:51:45.524Z,7.65
2022-10-23T06:54:12.408Z,8.73
2022-10-23T06:56:39.704Z,9.30
2022-10-23T06:59:07.785Z,7.55
2022-10-23T07:01:36.033Z,6.70
2022-10-23T07:04:03.122Z,7.97
2022-10-23T07:06:30.153Z,8.60
2022-10-23T07:08:57.046Z,7.45
2022-10-23T07:11:24.164Z,6.53
2022-10-23T07:13:51.534Z,8.57
2022-10-23T07:16:22.466Z,6.40
2022-10-23T07:18:59.695Z,6.30
2022-10-23T07:21:35.719Z,6.50
2022-10-23T07:24:03.672Z,6.68
2022-10-23T07:26:32.915Z,6.72
2022-10-23T07:28:59.788Z,7.47
2022-10-23T07:31:28.378Z,8.25
2022-10-23T07:33:55.500Z,6.10
2022-10-23T07:36:23.365Z,7.05
2022-10-23T07:38:52.162Z,5.38
2022-10-23T07:41:19.363Z,5.78
2022-10-23T07:43:46.810Z,6.60
2022-10-23T07:46:13.879Z,5.03
2022-10-23T07:48:41.354Z,5.57
2022-10-23T07:51:14.949Z,4.90
2022-10-23T07:53:44.940Z,4.97
2022-10-23T07:56:23.190Z,5.50
2022-10-23T07:58:54.234Z,5.72
2022-10-23T08:01:32.576Z,5.97
2022-10-23T08:04:00.941Z,5.85
2022-10-23T08:06:28.949Z,5.97
2022-10-23T08:08:56.052Z,5.63
2022-10-23T08:11:27.966Z,6.45
2022-10-23T08:13:58.790Z,9.15
2022-10-23T08:16:25.990Z,6.82
2022-10-23T08:18:52.995Z,6.35
2022-10-23T08:21:20.409Z,5.53
2022-10-23T08:23:47.304Z,8.10
2022-10-23T08:26:15.297Z,5.85
2022-10-23T08:28:42.136Z,7.05
2022-10-23T08:31:19.822Z,7.68
2022-10-23T08:33:46.939Z,10.55
2022-10-23T08:36:25.780Z,8.48
2022-10-23T08:38:55.108Z,9.32
2022-10-23T08:41:25.146Z,6.50
2022-10-23T08:44:01.368Z,10.23
2022-10-23T08:46:40.815Z,8.20
2022-10-23T08:49:49.166Z,5.72
2022-10-23T08:52:35.323Z,8.80
2022-10-23T08:55:33.688Z,12.85
2022-10-23T08:58:31.875Z,8.90
2022-10-23T09:00:59.061Z,5.82
2022-10-23T09:03:27.606Z,5.50
2022-10-23T09:06:12.153Z,6.07
2022-10-23T09:09:04.407Z,5.68
2022-10-23T09:11:49.068Z,7.35
2022-10-23T09:14:53.615Z,5.53
2022-10-23T09:17:28.567Z,5.30
2022-10-23T09:20:35.233Z,4.60
2022-10-23T09:23:14.462Z,6.50
2022-10-23T09:25:43.339Z,6.43
2022-10-23T09:28:21.991Z,5.22
2022-10-23T09:30:50.171Z,9.02
2022-10-23T09:33:28.268Z,7.00
2022-10-23T09:36:12.478Z,5.03
2022-10-23T09:38:45.366Z,9.18
2022-10-23T09:41:36.428Z,7.47
2022-10-23T09:44:24.818Z,5.45
2022-10-23T09:47:01.336Z,8.05
2022-10-23T09:49:34.197Z,5.13
2022-10-23T09:52:04.799Z,5.32
2022-10-23T09:54:44.470Z,7.60
2022-10-23T09:57:37.112Z,7.82
2022-10-23T10:00:27.719Z,8.68
2022-10-23T10:03:05.345Z,9.75
2022-10-23T10:05:39.613Z,8.20
2022-10-23T10:08:31.952Z,6.73
2022-10-23T10:11:13.193Z,6.53
2022-10-23T10:14:03.599Z,7.18
2022-10-23T10:16:54.571Z,6.75
2022-10-23T10:19:53.947Z,6.32
2022-10-23T10:22:41.925Z,6.30
2022-10-23T10:25:52.117Z,5.47
2022-10-23T10:28:37.519Z,5.45
2022-10-23T10:34:14.181Z,6.22
2022-10-23T10:37:13.443Z,6.22
2022-10-23T10:40:06.205Z,9.27
2022-10-23T10:43:00.320Z,5.85
2022-10-23T10:45:37.948Z,8.70
2022-10-23T10:48:47.738Z,5.80
2022-10-23T10:51:45.981Z,5.70
2022-10-23T10:54:19.153Z,7.53
2022-10-23T10:56:48.468Z,6.30
2022-10-23T10:59:31.967Z,8.43
2022-10-23T11:02:17.520Z,7.32
2022-10-23T11:05:05.073Z,7.90
2022-10-23T11:07:43.453Z,7.18
2022-10-23T11:10:19.693Z,7.97
2022-10-23T11:12:48.962Z,8.38
2022-10-23T11:15:23.613Z,8.40
2022-10-23T11:18:24.204Z,9.52
2022-10-23T11:21:11.898Z,8.05
2022-10-23T11:23:57.153Z,11.15
2022-10-23T11:26:35.127Z,8.43
2022-10-23T11:29:51.720Z,9.57
2022-10-23T11:32:38.247Z,10.02
2022-10-23T11:35:42.650Z,10.02
2022-10-23T11:38:35.515Z,12.27
2022-10-23T11:41:18.188Z,10.20
2022-10-23T11:43:55.454Z,10.68
2022-10-23T11:46:22.201Z,11.82
2022-10-23T11:48:50.512Z,11.45
2022-10-23T11:51:35.754Z,11.00
2022-10-23T11:54:12.071Z,12.52
2022-10-23T11:57:10.708Z,12.27
2022-10-23T11:59:51.889Z,12.20
2022-10-23T12:02:43.385Z,13.20
2022-10-23T12:05:35.524Z,13.23
2022-10-23T12:08:07.656Z,14.52
2022-10-23T12:10:45.816Z,13.90
2022-10-23T12:13:51.263Z,14.18
2022-10-23T12:16:18.339Z,13.95
2022-10-23T12:18:53.956Z,13.73
2022-10-23T12:21:28.442Z,13.98
2022-10-23T12:24:43.469Z,15.15
2022-10-23T12:27:23.986Z,14.50
2022-10-23T12:30:24.888Z,16.38
2022-10-23T12:33:03.275Z,14.10
2022-10-23T12:36:03.134Z,15.48
2022-10-23T12:38:34.061Z,15.10
2022-10-23T12:41:15.028Z,15.85
2022-10-23T12:44:03.977Z,17.00
2022-10-23T12:46:43.484Z,17.65
2022-10-23T12:49:21.336Z,18.80
2022-10-23T12:52:14.988Z,21.05
2022-10-23T12:54:42.457Z,22.30
2022-10-23T12:57:30.324Z,21.60
2022-10-23T13:00:08.292Z,20.90
2022-10-23T13:02:35.449Z,21.58
2022-10-23T13:05:08.122Z,22.48
2022-10-23T13:07:43.441Z,21.08
2022-10-23T13:10:17.573Z,19.52
2022-10-23T13:12:56.945Z,17.70
2022-10-23T13:15:27.039Z,17.00
2022-10-23T13:17:53.982Z,16.13
2022-10-23T13:20:27.540Z,14.70
2022-10-23T13:23:10.050Z,17.52
2022-10-23T13:25:39.563Z,14.32
2022-10-23T13:28:25.539Z,15.20
2022-10-23T13:31:27.758Z,17.02
2022-10-23T13:34:00.769Z,15.55
2022-10-23T13:36:34.670Z,15.20
2022-10-23T13:39:27.291Z,14.70
2022-10-23T13:41:54.488Z,14.10
2022-10-23T13:44:24.984Z,14.65
2022-10-23T13:46:52.711Z,13.85
2022-10-23T13:49:20.245Z,13.88
2022-10-23T13:51:54.715Z,27.13
2022-10-23T13:54:25.487Z,18.63
2022-10-23T13:56:55.578Z,31.17
2022-10-23T13:59:23.384Z,19.02
2022-10-23T14:01:51.659Z,18.45
2022-10-23T14:04:19.861Z,20.35
2022-10-23T14:06:47.391Z,16.65
2022-10-23T14:09:17.597Z,16.45
2022-10-23T14:11:44.824Z,13.93
2022-10-23T14:14:11.702Z,20.02
2022-10-23T14:16:40.190Z,14.02
2022-10-23T14:19:08.306Z,14.60
2022-10-23T14:21:36.088Z,17.65
2022-10-23T14:24:03.043Z,18.35
2022-10-23T14:26:30.470Z,15.55
2022-10-23T14:29:01.109Z,16.73
2022-10-23T14:31:32.306Z,15.55
2022-10-23T14:34:01.670Z,18.42
2022-10-23T14:36:38.585Z,17.38
2022-10-23T14:39:16.969Z,18.40
2022-10-23T14:41:44.334Z,21.85
2022-10-23T14:44:11.400Z,20.48
2022-10-23T14:46:38.669Z,17.65
2022-10-23T14:49:06.045Z,20.63
2022-10-23T14:51:35.375Z,20.30
2022-10-23T14:54:07.924Z,17.38
2022-10-23T14:56:40.894Z,20.55
2022-10-23T14:59:10.939Z,18.38
2022-10-23T15:01:45.287Z,17.60
2022-10-23T15:04:14.767Z,19.20
2022-10-23T15:06:43.567Z,17.27
2022-10-23T15:09:10.437Z,17.10
2022-10-23T15:11:38.265Z,16.60
2022-10-23T15:14:05.890Z,16.80
2022-10-23T15:16:33.088Z,18.52
2022-10-23T15:18:59.922Z,19.40
2022-10-23T15:21:27.311Z,19.45
2022-10-23T15:23:54.963Z,20.70
2022-10-23T15:26:23.419Z,17.80
2022-10-23T15:28:59.224Z,18.85
2022-10-23T15:31:29.117Z,16.83
2022-10-23T15:34:00.065Z,19.77
2022-10-23T15:36:27.559Z,19.30
2022-10-23T15:38:54.919Z,15.90
2022-10-23T15:41:34.274Z,15.35
2022-10-23T15:44:04.414Z,15.80
2022-10-23T15:46:31.988Z,20.95
2022-10-23T15:48:59.802Z,15.65
2022-10-23T15:51:27.330Z,16.60
2022-10-23T15:53:57.010Z,15.40
2022-10-23T15:56:25.533Z,16.83
2022-10-23T15:58:52.501Z,20.35
2022-10-23T16:01:19.638Z,17.35
2022-10-23T16:03:47.498Z,18.50
2022-10-23T16:06:17.738Z,21.13
2022-10-23T16:08:45.214Z,20.23
2022-10-23T16:11:20.209Z,21.42
2022-10-23T16:13:47.752Z,20.45
2022-10-23T16:16:16.402Z,20.63
2022-10-23T16:18:44.864Z,21.73
2022-10-23T16:21:28.358Z,21.70
2022-10-23T16:23:58.193Z,20.52
2022-10-23T16:26:27.190Z,23.33
2022-10-23T16:28:57.966Z,25.40
2022-10-23T16:31:26.595Z,23.95
2022-10-23T16:36:25.324Z,20.20
2022-10-23T16:38:52.311Z,23.75
2022-10-23T16:41:19.538Z,18.60
2022-10-23T16:43:46.408Z,20.58
2022-10-23T16:46:21.024Z,22.65
2022-10-23T16:48:50.331Z,22.33
2022-10-23T16:51:22.764Z,21.92
2022-10-23T16:53:49.689Z,24.95
2022-10-23T16:56:21.820Z,20.45
2022-10-23T16:58:48.842Z,25.30
2022-10-23T17:01:23.281Z,22.33
2022-10-23T17:03:52.192Z,21.17
2022-10-23T17:06:24.050Z,18.73
2022-10-23T17:08:51.617Z,20.15
2022-10-23T17:11:27.086Z,18.35
2022-10-23T17:14:01.071Z,20.60
2022-10-23T17:16:39.999Z,22.02
2022-10-23T17:19:20.547Z,21.92
2022-10-23T17:21:56.215Z,23.58
2022-10-23T17:24:23.982Z,19.02
2022-10-23T17:26:53.018Z,23.25
2022-10-23T17:29:21.067Z,22.10
2022-10-23T17:31:51.220Z,27.92
2022-10-23T17:34:22.829Z,20.95
2022-10-23T17:36:54.783Z,21.90
2022-10-23T17:39:28.549Z,26.42
2022-10-23T17:41:56.133Z,27.30
2022-10-23T17:44:23.131Z,32.55
2022-10-23T17:46:53.601Z,27.63
2022-10-23T17:49:22.260Z,31.05
2022-10-23T17:51:58.582Z,29.60
2022-10-23T17:54:28.041Z,27.40
2022-10-23T17:56:56.115Z,33.97
2022-10-23T17:59:23.900Z,33.15
2022-10-23T18:01:51.399Z,32.60
2022-10-23T18:04:20.545Z,35.83
2022-10-23T18:06:52.878Z,30.98
2022-10-23T18:09:22.885Z,62.55
2022-10-23T18:11:50.407Z,76.45
2022-10-23T18:14:19.802Z,54.22
2022-10-23T18:16:48.248Z,47.22
2022-10-23T18:19:18.237Z,35.75
2022-10-23T18:21:46.485Z,33.55
2022-10-23T18:24:13.842Z,33.92
2022-10-23T18:26:42.490Z,31.05
2022-10-23T18:29:12.060Z,53.92
2022-10-23T18:31:40.066Z,52.05
2022-10-23T18:34:21.776Z,37.65
2022-10-23T18:36:50.831Z,41.28
2022-10-23T18:39:22.566Z,35.30
2022-10-23T18:41:56.986Z,39.55
2022-10-23T18:44:26.979Z,38.10
2022-10-23T18:46:57.051Z,37.63
2022-10-23T18:49:24.235Z,34.08
2022-10-23T18:51:51.410Z,39.75
2022-10-23T18:54:20.804Z,38.85
2022-10-23T18:56:48.360Z,38.90
2022-10-23T18:59:20.028Z,38.30
2022-10-23T19:01:47.928Z,36.65
2022-10-23T19:04:17.807Z,36.65
2022-10-23T19:06:47.761Z,48.72
2022-10-23T19:09:15.241Z,39.88
2022-10-23T19:11:43.346Z,48.08
2022-10-23T19:14:11.214Z,41.03
2022-10-23T19:16:54.422Z,59.35
2022-10-23T19:19:27.234Z,51.40
2022-10-23T19:21:55.909Z,46.95
2022-10-23T19:24:41.684Z,38.88
2022-10-23T19:27:09.478Z,43.42
2022-10-23T19:29:43.487Z,42.42
2022-10-23T19:32:11.810Z,40.00
2022-10-23T19:34:38.786Z,35.78
2022-10-23T19:37:06.620Z,41.22
2022-10-23T19:39:34.515Z,45.83
2022-10-23T19:42:06.204Z,43.65
2022-10-23T19:44:33.418Z,46.28
2022-10-23T19:47:04.204Z,42.35
2022-10-23T19:49:32.646Z,39.20
2022-10-23T19:51:59.911Z,40.63
2022-10-23T19:54:27.168Z,38.15
2022-10-23T19:56:56.302Z,37.70
2022-10-23T19:59:25.647Z,42.22
2022-10-23T20:01:53.146Z,41.85
2022-10-23T20:04:20.725Z,42.78
2022-10-23T20:06:48.200Z,43.97
2022-10-23T20:09:15.122Z,40.53
2022-10-23T20:11:43.651Z,41.92
2022-10-23T20:14:12.287Z,42.83
2022-10-23T20:16:44.877Z,46.72
2022-10-23T20:21:48.517Z,44.50
2022-10-23T20:24:18.713Z,46.00
2022-10-23T20:26:49.973Z,46.42
2022-10-23T20:29:16.880Z,46.35
2022-10-23T20:31:44.258Z,44.35
2022-10-23T20:34:11.834Z,48.63
2022-10-23T20:36:46.405Z,47.00
2022-10-23T20:39:21.702Z,59.47
2022-10-23T20:41:48.798Z,46.03
2022-10-23T20:44:18.095Z,45.60
2022-10-23T20:46:45.876Z,43.13
2022-10-23T20:49:14.299Z,48.00
2022-10-23T20:51:42.425Z,50.25
2022-10-23T20:54:09.651Z,48.38
2022-10-23T20:56:39.102Z,47.78
2022-10-23T20:59:17.746Z,45.38
2022-10-23T21:01:49.965Z,45.35
2022-10-23T21:04:25.192Z,47.53
2022-10-23T21:07:09.427Z,55.75
2022-10-23T21:09:38.076Z,48.95
2022-10-23T21:12:06.677Z,53.65
2022-10-23T21:14:34.788Z,48.83
2022-10-23T21:17:02.199Z,49.03
2022-10-23T21:19:30.140Z,45.10
2022-10-23T21:21:57.345Z,49.65
2022-10-23T21:24:24.668Z,50.13
2022-10-23T21:26:51.828Z,48.70
2022-10-23T21:29:20.013Z,49.30
2022-10-23T21:32:01.541Z,44.45
2022-10-23T21:34:29.191Z,47.33
2022-10-23T21:37:13.420Z,47.97
2022-10-23T21:39:45.859Z,46.70
2022-10-23T21:42:15.024Z,44.58
2022-10-23T21:44:42.038Z,54.08
2022-10-23T21:47:09.173Z,50.35
2022-10-23T21:49:36.068Z,47.47
2022-10-23T21:52:04.695Z,53.33
2022-10-23T21:54:31.609Z,49.17
2022-10-23T21:56:58.681Z,45.28
2022-10-23T21:59:30.145Z,41.67
2022-10-23T22:02:02.045Z,47.28
2022-10-23T22:04:33.025Z,37.90
2022-10-23T22:07:03.001Z,34.58
2022-10-23T22:09:31.512Z,34.80
2022-10-23T22:12:00.068Z,31.52
2022-10-23T22:14:28.288Z,30.10
2022-10-23T22:16:55.338Z,27.05
2022-10-23T22:19:23.182Z,27.33
2022-10-23T22:21:51.380Z,27.05
2022-10-23T22:24:18.816Z,23.17
2022-10-23T22:26:53.209Z,23.45
2022-10-23T22:29:25.627Z,22.03
2022-10-23T22:31:53.700Z,20.80
2022-10-23T22:37:16.122Z,19.38
2022-10-23T22:39:43.280Z,22.45
2022-10-23T22:42:10.382Z,31.77
2022-10-23T22:44:37.358Z,40.22
2022-10-23T22:47:04.735Z,36.53
2022-10-23T22:49:31.601Z,40.90
2022-10-23T22:51:58.634Z,42.97
2022-10-23T22:54:25.483Z,39.17
2022-10-23T22:56:52.862Z,41.20
2022-10-23T22:59:19.720Z,41.33
2022-10-23T23:01:48.736Z,42.00
2022-10-23T23:07:11.735Z,34.83
2022-10-23T23:09:42.193Z,36.72
2022-10-23T23:12:13.133Z,33.08
2022-10-23T23:14:41.153Z,37.13
2022-10-23T23:17:10.355Z,42.30
2022-10-23T23:19:37.978Z,40.58
2022-10-23T23:22:05.848Z,44.17
2022-10-23T23:24:33.093Z,50.67
2022-10-23T23:27:00.205Z,41.38
2022-10-23T23:29:28.435Z,40.25
2022-10-23T23:31:55.567Z,43.05
2022-10-23T23:34:22.373Z,40.85
2022-10-23T23:36:49.457Z,45.22
2022-10-23T23:39:16.716Z,48.45
2022-10-23T23:41:43.715Z,47.17
2022-10-23T23:44:10.546Z,49.28
2022-10-23T23:46:37.637Z,48.67
2022-10-23T23:49:04.479Z,44.88
2022-10-23T23:51:31.859Z,45.78
2022-10-23T23:53:58.670Z,50.90
2022-10-23T23:56:25.921Z,47.15
2022-10-23T23:58:52.769Z,50.50
